createdAt,value
2022-08-10T00:00:58.414Z,19.80
2022-08-10T00:03:26.369Z,19.80
2022-08-10T00:05:56.408Z,19.80
2022-08-10T00:08:26.249Z,19.70
2022-08-10T00:10:54.585Z,19.60
2022-08-10T00:13:23.792Z,19.60
2022-08-10T00:15:54.957Z,19.50
2022-08-10T00:18:34.570Z,19.50
2022-08-10T00:21:05.145Z,19.40
2022-08-10T00:23:35.003Z,19.30
2022-08-10T00:26:03.412Z,19.30
2022-08-10T00:28:31.467Z,19.20
2022-08-10T00:30:59.861Z,19.20
2022-08-10T00:33:28.043Z,19.20
2022-08-10T00:35:56.059Z,19.20
2022-08-10T00:38:24.325Z,19.20
2022-08-10T00:40:53.629Z,19.10
2022-08-10T00:43:23.505Z,19.10
2022-08-10T00:45:58.904Z,19.10
2022-08-10T00:48:29.256Z,19.10
2022-08-10T00:50:59.287Z,19.10
2022-08-10T00:53:28.083Z,19.00
2022-08-10T00:57:12.348Z,18.90
2022-08-10T00:58:47.168Z,18.80
2022-08-10T01:02:07.614Z,18.70
2022-08-10T01:04:40.327Z,18.60
2022-08-10T01:07:07.371Z,18.40
2022-08-10T01:09:57.121Z,18.40
2022-08-10T01:12:40.856Z,18.30
2022-08-10T01:15:16.254Z,18.30
2022-08-10T01:17:53.627Z,18.20
2022-08-10T01:20:30.844Z,18.20
2022-08-10T01:23:25.029Z,18.10
2022-08-10T01:26:30.382Z,18.10
2022-08-10T01:29:18.551Z,18.10
2022-08-10T01:31:58.832Z,18.10
2022-08-10T01:34:41.799Z,18.10
2022-08-10T01:37:14.868Z,18.00
2022-08-10T01:39:48.045Z,18.10
2022-08-10T01:42:23.318Z,18.10
2022-08-10T01:45:03.171Z,18.20
2022-08-10T01:48:00.327Z,18.20
2022-08-10T01:50:59.423Z,18.30
2022-08-10T01:53:41.066Z,18.30
2022-08-10T01:56:17.738Z,18.40
2022-08-10T01:59:00.868Z,18.40
2022-08-10T02:01:43.053Z,18.40
2022-08-10T02:04:19.462Z,18.40
2022-08-10T02:06:55.543Z,18.40
2022-08-10T02:09:43.774Z,18.40
2022-08-10T02:12:34.136Z,18.40
2022-08-10T02:15:09.582Z,18.40
2022-08-10T02:17:59.193Z,18.40
2022-08-10T02:20:42.236Z,18.40
2022-08-10T02:23:21.926Z,18.40
2022-08-10T02:25:53.842Z,18.30
2022-08-10T02:28:40.808Z,18.30
2022-08-10T02:31:17.067Z,18.30
2022-08-10T02:33:59.372Z,18.20
2022-08-10T02:36:37.839Z,18.20
2022-08-10T02:39:19.967Z,18.20
2022-08-10T02:45:01.236Z,18.20
2022-08-10T02:45:22.917Z,18.20
2022-08-10T02:47:54.763Z,18.10
2022-08-10T02:50:29.740Z,18.10
2022-08-10T02:53:55.386Z,18.10
2022-08-10T02:56:08.326Z,18.00
2022-08-10T02:58:42.849Z,18.00
2022-08-10T03:01:22.438Z,17.90
2022-08-10T03:04:02.781Z,17.90
2022-08-10T03:06:43.857Z,17.80
2022-08-10T03:09:23.927Z,17.70
2022-08-10T03:12:34.970Z,17.60
2022-08-10T03:14:41.671Z,17.60
2022-08-10T03:17:12.055Z,17.60
2022-08-10T03:20:36.033Z,17.60
2022-08-10T03:22:30.488Z,17.50
2022-08-10T03:25:00.581Z,17.50
2022-08-10T03:27:31.321Z,17.50
2022-08-10T03:30:32.021Z,17.50
2022-08-10T03:32:53.738Z,17.50
2022-08-10T03:35:24.358Z,17.10
2022-08-10T03:38:00.021Z,17.40
2022-08-10T03:40:46.271Z,17.40
2022-08-10T03:43:19.644Z,17.40
2022-08-10T03:45:55.755Z,17.40
2022-08-10T03:48:32.460Z,17.40
2022-08-10T03:51:19.058Z,17.40
2022-08-10T03:54:02.993Z,17.40
2022-08-10T03:56:39.126Z,17.40
2022-08-10T03:59:13.056Z,17.40
2022-08-10T04:02:52.195Z,17.40
2022-08-10T04:04:35.034Z,17.40
2022-08-10T04:07:04.344Z,18.20
2022-08-10T04:09:42.746Z,17.30
2022-08-10T04:12:23.677Z,17.30
2022-08-10T04:14:53.324Z,17.30
2022-08-10T04:17:56.402Z,17.30
2022-08-10T04:20:17.616Z,17.30
2022-08-10T04:22:47.785Z,17.30
2022-08-10T04:25:17.782Z,17.30
2022-08-10T04:27:47.815Z,17.30
2022-08-10T04:30:16.079Z,17.30
2022-08-10T04:32:46.795Z,17.20
2022-08-10T04:35:17.657Z,17.20
2022-08-10T04:37:47.841Z,17.30
2022-08-10T04:40:29.292Z,17.30
2022-08-10T04:43:05.842Z,17.30
2022-08-10T04:45:49.081Z,17.30
2022-08-10T04:48:43.377Z,17.30
2022-08-10T04:51:16.005Z,17.30
2022-08-10T04:54:03.042Z,17.30
2022-08-10T04:56:35.023Z,17.40
2022-08-10T04:59:06.177Z,17.40
2022-08-10T05:02:12.257Z,17.40
2022-08-10T05:04:38.665Z,17.40
2022-08-10T05:07:09.178Z,17.50
2022-08-10T05:10:03.583Z,17.50
2022-08-10T05:12:25.509Z,17.50
2022-08-10T05:14:54.991Z,17.60
2022-08-10T05:17:23.921Z,17.60
2022-08-10T05:20:03.915Z,17.70
2022-08-10T05:22:38.080Z,17.80
2022-08-10T05:25:08.495Z,17.80
2022-08-10T05:27:36.989Z,17.90
2022-08-10T05:30:08.036Z,18.00
2022-08-10T05:32:56.411Z,18.00
2022-08-10T05:35:24.852Z,18.10
2022-08-10T05:38:11.419Z,18.20
2022-08-10T05:40:47.121Z,18.30
2022-08-10T05:43:18.762Z,18.40
2022-08-10T05:46:19.266Z,18.40
2022-08-10T05:48:59.182Z,18.50
2022-08-10T05:51:32.903Z,18.60
2022-08-10T05:54:06.879Z,18.70
2022-08-10T05:56:53.346Z,18.80
2022-08-10T06:00:11.020Z,18.90
2022-08-10T06:02:41.387Z,19.00
2022-08-10T06:05:12.715Z,19.10
2022-08-10T06:07:43.943Z,19.20
2022-08-10T06:10:31.236Z,19.30
2022-08-10T06:13:27.047Z,19.50
2022-08-10T06:16:02.226Z,19.60
2022-08-10T06:18:32.004Z,19.70
2022-08-10T06:21:00.928Z,19.80
2022-08-10T06:23:30.704Z,19.90
2022-08-10T06:26:11.180Z,20.10
2022-08-10T06:28:52.952Z,20.30
2022-08-10T06:31:46.640Z,20.50
2022-08-10T06:34:23.514Z,20.60
2022-08-10T06:36:52.969Z,20.70
2022-08-10T06:39:37.608Z,20.80
2022-08-10T06:42:17.579Z,20.90
2022-08-10T06:44:55.477Z,21.00
2022-08-10T06:47:27.826Z,21.10
2022-08-10T06:50:02.699Z,21.30
2022-08-10T06:52:35.042Z,21.40
2022-08-10T06:55:05.413Z,21.60
2022-08-10T06:57:39.704Z,21.70
2022-08-10T07:00:09.760Z,21.90
2022-08-10T07:02:45.082Z,22.00
2022-08-10T07:05:19.948Z,22.20
2022-08-10T07:07:49.192Z,22.30
2022-08-10T07:10:20.461Z,22.50
2022-08-10T07:12:51.241Z,22.60
2022-08-10T07:15:20.511Z,22.70
2022-08-10T07:17:50.323Z,22.90
2022-08-10T07:20:22.078Z,22.90
2022-08-10T07:23:50.775Z,23.00
2022-08-10T07:25:43.286Z,23.10
2022-08-10T07:28:11.954Z,23.30
2022-08-10T07:30:40.908Z,23.40
2022-08-10T07:33:10.552Z,23.50
2022-08-10T07:35:43.696Z,23.70
2022-08-10T07:38:24.893Z,23.90
2022-08-10T07:40:55.113Z,24.00
2022-08-10T07:43:26.129Z,24.20
2022-08-10T07:45:54.487Z,24.30
2022-08-10T07:48:26.876Z,24.40
2022-08-10T07:51:00.240Z,24.60
2022-08-10T07:53:31.601Z,24.60
2022-08-10T07:56:13.285Z,24.90
2022-08-10T07:58:52.596Z,25.00
2022-08-10T08:01:24.753Z,25.20
2022-08-10T08:04:05.885Z,25.30
2022-08-10T08:06:43.441Z,25.40
2022-08-10T08:09:11.939Z,25.40
2022-08-10T08:11:42.205Z,25.50
2022-08-10T08:14:11.198Z,25.60
2022-08-10T08:16:43.395Z,25.80
2022-08-10T08:19:37.867Z,25.90
2022-08-10T08:24:06.552Z,26.10
2022-08-10T08:24:53.810Z,26.30
2022-08-10T08:27:22.700Z,26.40
2022-08-10T08:29:52.186Z,26.40
2022-08-10T08:32:24.091Z,26.50
2022-08-10T08:34:56.702Z,26.60
2022-08-10T08:38:32.592Z,26.50
2022-08-10T08:40:22.179Z,26.50
2022-08-10T08:43:17.948Z,26.60
2022-08-10T08:46:19.440Z,26.60
2022-08-10T08:50:04.553Z,26.60
2022-08-10T08:52:18.914Z,26.70
2022-08-10T08:55:00.679Z,26.80
2022-08-10T08:57:50.679Z,26.70
2022-08-10T09:00:27.440Z,26.80
2022-08-10T09:03:25.074Z,26.90
2022-08-10T09:06:07.022Z,27.00
2022-08-10T09:09:10.937Z,27.00
2022-08-10T09:11:55.424Z,27.00
2022-08-10T09:14:31.540Z,27.10
2022-08-10T09:17:10.658Z,27.20
2022-08-10T09:19:47.573Z,27.30
2022-08-10T09:22:27.094Z,27.40
2022-08-10T09:25:04.116Z,27.40
2022-08-10T09:27:40.558Z,27.50
2022-08-10T09:30:16.365Z,27.60
2022-08-10T09:35:39.897Z,27.80
2022-08-10T09:36:22.032Z,27.80
2022-08-10T09:38:49.789Z,27.80
2022-08-10T09:41:33.883Z,27.80
2022-08-10T09:44:14.891Z,27.80
2022-08-10T09:47:15.976Z,28.00
2022-08-10T09:49:59.790Z,28.00
2022-08-10T09:52:42.047Z,28.20
2022-08-10T09:55:18.062Z,28.20
2022-08-10T09:58:01.976Z,28.30
2022-08-10T10:00:39.207Z,28.50
2022-08-10T10:03:17.269Z,28.50
2022-08-10T10:05:54.332Z,28.50
2022-08-10T10:08:29.022Z,28.50
2022-08-10T10:11:08.633Z,28.50
2022-08-10T10:14:02.410Z,28.60
2022-08-10T10:16:48.641Z,28.60
2022-08-10T10:19:30.923Z,28.70
2022-08-10T10:22:11.596Z,28.80
2022-08-10T10:24:48.526Z,28.90
2022-08-10T10:27:27.672Z,28.90
2022-08-10T10:30:04.698Z,28.70
2022-08-10T10:32:48.591Z,28.90
2022-08-10T10:35:25.060Z,28.90
2022-08-10T10:38:10.607Z,28.80
2022-08-10T10:40:46.383Z,28.90
2022-08-10T10:43:30.632Z,29.10
2022-08-10T10:46:08.865Z,29.10
2022-08-10T10:48:46.813Z,29.10
2022-08-10T10:51:22.026Z,29.10
2022-08-10T10:54:01.094Z,29.10
2022-08-10T10:56:36.757Z,29.20
2022-08-10T10:59:54.431Z,29.40
2022-08-10T11:02:32.434Z,29.70
2022-08-10T11:05:14.825Z,29.70
2022-08-10T11:07:53.468Z,29.80
2022-08-10T11:10:33.145Z,29.80
2022-08-10T11:14:26.222Z,29.80
2022-08-10T11:16:21.087Z,29.80
2022-08-10T11:19:11.380Z,29.70
2022-08-10T11:21:52.793Z,29.90
2022-08-10T11:24:42.969Z,30.10
2022-08-10T11:27:33.890Z,29.80
2022-08-10T11:30:06.431Z,29.80
2022-08-10T11:32:38.051Z,29.90
2022-08-10T11:35:18.429Z,29.90
2022-08-10T11:38:31.435Z,29.90
2022-08-10T11:40:54.206Z,30.20
2022-08-10T11:43:27.210Z,30.40
2022-08-10T11:46:07.902Z,30.50
2022-08-10T11:48:54.067Z,30.70
2022-08-10T11:51:29.638Z,30.70
2022-08-10T11:54:06.780Z,30.70
2022-08-10T11:56:45.982Z,30.70
2022-08-10T11:59:32.389Z,30.80
2022-08-10T12:02:00.820Z,30.80
2022-08-10T12:04:30.319Z,31.00
2022-08-10T12:07:00.030Z,31.10
2022-08-10T12:10:10.417Z,31.30
2022-08-10T12:12:19.502Z,31.10
2022-08-10T12:14:54.359Z,31.00
2022-08-10T12:17:28.098Z,31.10
2022-08-10T12:20:05.171Z,31.10
2022-08-10T12:22:43.044Z,31.30
2022-08-10T12:25:55.033Z,31.00
2022-08-10T12:28:19.093Z,31.20
2022-08-10T12:30:53.129Z,31.00
2022-08-10T12:33:25.803Z,31.00
2022-08-10T12:36:19.546Z,31.00
2022-08-10T12:38:57.517Z,31.20
2022-08-10T12:41:44.308Z,31.40
2022-08-10T12:44:20.344Z,31.50
2022-08-10T12:46:56.188Z,31.70
2022-08-10T12:49:38.753Z,31.80
2022-08-10T12:52:16.259Z,32.00
2022-08-10T12:54:45.926Z,31.90
2022-08-10T12:57:18.385Z,32.10
2022-08-10T12:59:49.457Z,32.00
2022-08-10T13:02:24.192Z,32.00
2022-08-10T13:04:54.819Z,31.90
2022-08-10T13:08:25.152Z,31.90
2022-08-10T13:10:17.255Z,32.10
2022-08-10T13:12:53.480Z,31.90
2022-08-10T13:15:48.286Z,32.10
2022-08-10T13:18:17.772Z,32.20
2022-08-10T13:20:53.668Z,32.00
2022-08-10T13:23:27.143Z,32.50
2022-08-10T13:25:58.738Z,32.70
2022-08-10T13:28:45.249Z,32.90
2022-08-10T13:31:18.020Z,32.90
2022-08-10T13:34:03.577Z,32.80
2022-08-10T13:36:42.949Z,32.70
2022-08-10T13:39:13.669Z,32.90
2022-08-10T13:41:45.232Z,33.10
2022-08-10T13:44:28.642Z,33.10
2022-08-10T13:46:58.655Z,33.30
2022-08-10T13:49:30.845Z,33.20
2022-08-10T13:52:00.226Z,33.50
2022-08-10T13:54:38.219Z,34.00
2022-08-10T13:57:08.127Z,34.00
2022-08-10T14:00:34.569Z,34.50
2022-08-10T14:02:30.348Z,34.70
2022-08-10T14:05:00.863Z,34.90
2022-08-10T14:07:33.400Z,35.30
2022-08-10T14:10:11.107Z,35.50
2022-08-10T14:12:47.755Z,35.40
2022-08-10T14:15:20.531Z,35.70
2022-08-10T14:17:55.255Z,35.90
2022-08-10T14:20:28.850Z,36.70
2022-08-10T14:23:02.618Z,37.00
2022-08-10T14:25:34.508Z,37.30
2022-08-10T14:28:04.311Z,37.60
2022-08-10T14:30:35.515Z,37.20
2022-08-10T14:33:05.476Z,37.20
2022-08-10T14:36:18.896Z,37.50
2022-08-10T14:38:30.110Z,37.40
2022-08-10T14:41:03.193Z,37.20
2022-08-10T14:43:39.687Z,37.70
2022-08-10T14:46:16.314Z,36.90
2022-08-10T14:48:48.315Z,37.00
2022-08-10T14:51:20.951Z,37.60
2022-08-10T14:53:58.061Z,37.60
2022-08-10T14:56:33.104Z,36.90
2022-08-10T14:59:06.913Z,38.00
2022-08-10T15:02:01.013Z,37.70
2022-08-10T15:04:29.290Z,36.90
2022-08-10T15:07:00.859Z,36.10
2022-08-10T15:09:59.914Z,35.50
2022-08-10T15:12:26.381Z,36.10
2022-08-10T15:15:00.890Z,36.70
2022-08-10T15:17:36.769Z,36.70
2022-08-10T15:20:14.443Z,36.50
2022-08-10T15:22:50.406Z,36.00
2022-08-10T15:25:24.369Z,35.30
2022-08-10T15:27:57.756Z,34.80
2022-08-10T15:30:40.416Z,35.20
2022-08-10T15:34:01.970Z,35.70
2022-08-10T15:37:35.915Z,35.50
2022-08-10T15:40:25.764Z,36.20
2022-08-10T15:42:35.034Z,36.90
2022-08-10T15:45:03.984Z,37.00
2022-08-10T15:47:46.301Z,37.10
2022-08-10T15:50:21.209Z,37.40
2022-08-10T15:53:00.694Z,37.70
2022-08-10T15:55:41.114Z,37.60
2022-08-10T15:58:18.429Z,37.70
2022-08-10T16:00:51.499Z,37.40
2022-08-10T16:03:25.642Z,37.60
2022-08-10T16:06:01.412Z,37.40
2022-08-10T16:08:55.701Z,37.40
2022-08-10T16:11:37.466Z,37.20
2022-08-10T16:14:17.246Z,38.10
2022-08-10T16:16:49.954Z,38.10
2022-08-10T16:19:24.246Z,37.80
2022-08-10T16:22:33.990Z,37.80
2022-08-10T16:24:56.633Z,38.00
2022-08-10T16:27:28.198Z,37.70
2022-08-10T16:30:00.951Z,37.70
2022-08-10T16:32:31.251Z,37.80
2022-08-10T16:35:00.915Z,37.70
2022-08-10T16:37:57.448Z,37.70
2022-08-10T16:40:26.751Z,37.30
2022-08-10T16:42:55.075Z,37.40
2022-08-10T16:45:38.132Z,37.00
2022-08-10T16:48:09.151Z,36.60
2022-08-10T16:50:41.919Z,36.50
2022-08-10T16:53:15.093Z,36.90
2022-08-10T16:55:50.472Z,36.80
2022-08-10T16:58:27.274Z,36.70
2022-08-10T17:01:01.644Z,35.90
2022-08-10T17:04:07.229Z,35.60
2022-08-10T17:06:25.000Z,34.90
2022-08-10T17:08:56.490Z,34.20
2022-08-10T17:11:30.771Z,33.70
2022-08-10T17:13:59.788Z,33.00
2022-08-10T17:16:33.484Z,32.70
2022-08-10T17:19:02.275Z,32.40
2022-08-10T17:21:36.067Z,32.10
2022-08-10T17:24:08.673Z,31.80
2022-08-10T17:26:38.893Z,31.50
2022-08-10T17:29:17.150Z,31.30
2022-08-10T17:31:54.757Z,31.10
2022-08-10T17:34:30.678Z,30.80
2022-08-10T17:37:00.439Z,30.70
2022-08-10T17:39:37.458Z,30.60
2022-08-10T17:42:09.431Z,30.50
2022-08-10T17:44:38.924Z,30.50
2022-08-10T17:47:10.977Z,30.30
2022-08-10T17:49:39.738Z,30.10
2022-08-10T17:52:11.285Z,30.00
2022-08-10T17:54:44.320Z,29.90
2022-08-10T17:57:17.811Z,29.90
2022-08-10T17:59:48.052Z,29.90
2022-08-10T18:02:20.781Z,29.70
2022-08-10T18:04:52.430Z,29.60
2022-08-10T18:07:23.462Z,29.50
2022-08-10T18:09:54.932Z,29.30
2022-08-10T18:12:32.694Z,29.30
2022-08-10T18:15:12.340Z,29.20
2022-08-10T18:17:45.679Z,29.10
2022-08-10T18:20:15.556Z,29.00
2022-08-10T18:22:51.112Z,28.90
2022-08-10T18:25:23.731Z,28.80
2022-08-10T18:28:04.289Z,28.70
2022-08-10T18:30:36.814Z,28.60
2022-08-10T18:33:09.641Z,28.50
2022-08-10T18:35:38.523Z,28.40
2022-08-10T18:38:08.580Z,28.30
2022-08-10T18:40:39.370Z,28.10
2022-08-10T18:44:06.445Z,28.00
2022-08-10T18:46:00.952Z,27.90
2022-08-10T18:48:38.144Z,27.80
2022-08-10T18:51:07.746Z,27.60
2022-08-10T18:53:41.196Z,27.50
2022-08-10T18:56:23.998Z,27.40
2022-08-10T18:59:06.449Z,27.20
2022-08-10T19:01:50.878Z,27.10
2022-08-10T19:04:36.069Z,27.00
2022-08-10T19:07:31.395Z,26.90
2022-08-10T19:10:09.982Z,26.80
2022-08-10T19:12:49.306Z,26.60
2022-08-10T19:15:24.640Z,26.50
2022-08-10T19:18:07.204Z,26.40
2022-08-10T19:20:42.163Z,26.30
2022-08-10T19:23:28.138Z,26.20
2022-08-10T19:26:43.191Z,26.10
2022-08-10T19:29:03.753Z,25.90
2022-08-10T19:31:44.495Z,25.90
2022-08-10T19:34:43.009Z,25.70
2022-08-10T19:37:21.914Z,25.60
2022-08-10T19:40:12.445Z,25.50
2022-08-10T19:42:43.708Z,25.40
2022-08-10T19:45:55.487Z,25.30
2022-08-10T19:48:19.833Z,25.20
2022-08-10T19:50:54.699Z,25.10
2022-08-10T19:53:31.313Z,25.00
2022-08-10T19:56:31.034Z,24.90
2022-08-10T19:59:04.647Z,24.80
2022-08-10T20:01:54.511Z,24.70
2022-08-10T20:04:28.879Z,24.70
2022-08-10T20:07:10.202Z,24.60
2022-08-10T20:09:47.188Z,24.50
2022-08-10T20:12:20.433Z,24.40
2022-08-10T20:15:00.221Z,24.30
2022-08-10T20:17:51.337Z,24.30
2022-08-10T20:20:31.320Z,24.20
2022-08-10T20:23:09.566Z,24.10
2022-08-10T20:25:37.965Z,24.00
2022-08-10T20:28:16.051Z,24.00
2022-08-10T20:30:47.961Z,23.90
2022-08-10T20:33:23.751Z,23.90
2022-08-10T20:35:57.248Z,23.80
2022-08-10T20:38:33.912Z,23.70
2022-08-10T20:41:19.071Z,23.70
2022-08-10T20:43:59.135Z,23.60
2022-08-10T20:46:31.777Z,23.60
2022-08-10T20:49:12.484Z,23.50
2022-08-10T20:51:58.777Z,23.50
2022-08-10T20:54:32.872Z,23.40
2022-08-10T20:57:56.145Z,23.30
2022-08-10T21:00:10.839Z,23.10
2022-08-10T21:03:06.661Z,23.10
2022-08-10T21:05:52.800Z,23.00
2022-08-10T21:08:32.644Z,23.00
2022-08-10T21:11:09.231Z,22.90
2022-08-10T21:13:56.870Z,22.90
2022-08-10T21:16:37.597Z,22.80
2022-08-10T21:19:36.489Z,22.80
2022-08-10T21:22:15.928Z,22.70
2022-08-10T21:24:52.361Z,22.70
2022-08-10T21:27:55.400Z,22.60
2022-08-10T21:30:29.186Z,22.50
2022-08-10T21:32:59.537Z,22.40
2022-08-10T21:35:37.760Z,22.30
2022-08-10T21:38:16.767Z,22.30
2022-08-10T21:41:57.552Z,22.20
2022-08-10T21:44:49.340Z,22.20
2022-08-10T21:48:07.211Z,22.10
2022-08-10T21:51:02.179Z,22.00
2022-08-10T21:53:56.808Z,22.00
2022-08-10T21:56:47.347Z,22.00
2022-08-10T21:59:44.894Z,22.00
2022-08-10T22:02:41.064Z,22.00
2022-08-10T22:05:38.725Z,22.00
2022-08-10T22:08:27.648Z,21.70
2022-08-10T22:11:17.748Z,22.00
2022-08-10T22:14:09.344Z,22.00
2022-08-10T22:17:03.700Z,21.90
2022-08-10T22:19:53.201Z,21.90
2022-08-10T22:22:56.037Z,21.80
2022-08-10T22:26:00.323Z,21.80
2022-08-10T22:28:48.885Z,21.70
2022-08-10T22:31:51.449Z,21.70
2022-08-10T22:34:58.531Z,21.60
2022-08-10T22:37:57.770Z,21.60
2022-08-10T22:40:43.759Z,21.70
2022-08-10T22:43:38.486Z,21.70
2022-08-10T22:46:33.940Z,21.70
2022-08-10T22:49:01.151Z,21.60
2022-08-10T22:51:49.545Z,21.70
2022-08-10T22:54:41.597Z,21.70
2022-08-10T22:57:31.584Z,21.70
2022-08-10T22:59:59.927Z,21.70
2022-08-10T23:02:33.611Z,21.80
2022-08-10T23:05:11.329Z,21.70
2022-08-10T23:07:47.413Z,21.70
2022-08-10T23:10:17.431Z,21.70
2022-08-10T23:12:50.875Z,21.70
2022-08-10T23:15:41.953Z,21.70
2022-08-10T23:18:33.727Z,21.70
2022-08-10T23:21:03.304Z,21.70
2022-08-10T23:23:37.479Z,21.60
2022-08-10T23:26:07.207Z,21.70
2022-08-10T23:28:58.467Z,21.70
2022-08-10T23:32:00.753Z,21.70
2022-08-10T23:34:23.977Z,21.80
2022-08-10T23:36:54.820Z,21.80
2022-08-10T23:39:31.054Z,21.80
2022-08-10T23:42:07.488Z,21.70
2022-08-10T23:44:42.615Z,21.70
2022-08-10T23:47:12.581Z,21.70
2022-08-10T23:49:43.619Z,21.80
2022-08-10T23:52:14.779Z,21.80
2022-08-10T23:54:49.065Z,21.80
2022-08-10T23:57:22.160Z,21.80
2022-08-10T23:59:55.482Z,21.70
